createdAt,value
2022-10-23T00:00:07.059Z,12.60
2022-10-23T00:02:33.860Z,12.50
2022-10-23T00:05:00.486Z,12.60
2022-10-23T00:07:27.156Z,12.70
2022-10-23T00:09:53.821Z,12.80
2022-10-23T00:12:20.449Z,12.60
2022-10-23T00:14:47.043Z,12.10
2022-10-23T00:17:13.659Z,12.30
2022-10-23T00:19:40.238Z,12.10
2022-10-23T00:22:06.839Z,11.90
2022-10-23T00:24:33.434Z,11.80
2022-10-23T00:27:00.088Z,11.80
2022-10-23T00:29:26.674Z,11.80
2022-10-23T00:31:53.262Z,11.80
2022-10-23T00:34:19.930Z,11.50
2022-10-23T00:36:46.522Z,11.70
2022-10-23T00:39:13.160Z,12.00
2022-10-23T00:41:39.763Z,12.20
2022-10-23T00:44:06.387Z,12.40
2022-10-23T00:46:32.975Z,12.30
2022-10-23T00:48:59.658Z,12.10
2022-10-23T00:51:26.288Z,12.20
2022-10-23T00:54:01.326Z,11.70
2022-10-23T00:56:39.503Z,12.00
2022-10-23T00:59:06.119Z,12.00
2022-10-23T01:01:32.863Z,12.20
2022-10-23T01:03:59.586Z,12.00
2022-10-23T01:06:26.182Z,12.00
2022-10-23T01:08:52.801Z,11.80
2022-10-23T01:11:19.432Z,11.80
2022-10-23T01:13:46.013Z,11.90
2022-10-23T01:16:12.656Z,12.30
2022-10-23T01:18:39.268Z,12.10
2022-10-23T01:21:05.882Z,12.30
2022-10-23T01:23:32.489Z,12.30
2022-10-23T01:25:59.162Z,12.20
2022-10-23T01:28:25.757Z,12.40
2022-10-23T01:30:52.384Z,12.40
2022-10-23T01:33:19.102Z,12.50
2022-10-23T01:35:45.683Z,12.10
2022-10-23T01:38:12.299Z,12.00
2022-10-23T01:40:38.896Z,12.10
2022-10-23T01:43:05.515Z,12.20
2022-10-23T01:45:32.329Z,12.10
2022-10-23T01:47:58.943Z,11.80
2022-10-23T01:50:25.557Z,11.70
2022-10-23T01:52:52.144Z,11.70
2022-10-23T01:55:18.762Z,11.40
2022-10-23T01:57:45.532Z,11.50
2022-10-23T02:00:12.282Z,11.30
2022-10-23T02:02:38.880Z,11.00
2022-10-23T02:05:05.503Z,11.30
2022-10-23T02:07:32.095Z,11.40
2022-10-23T02:09:58.687Z,11.60
2022-10-23T02:12:25.294Z,11.50
2022-10-23T02:14:51.884Z,11.10
2022-10-23T02:17:18.497Z,11.50
2022-10-23T02:19:45.107Z,11.70
2022-10-23T02:22:11.725Z,11.60
2022-10-23T02:24:38.344Z,11.40
2022-10-23T02:27:04.947Z,11.60
2022-10-23T02:29:31.555Z,11.40
2022-10-23T02:31:58.145Z,11.50
2022-10-23T02:34:24.771Z,11.80
2022-10-23T02:36:51.357Z,11.50
2022-10-23T02:39:18.003Z,11.50
2022-10-23T02:41:44.647Z,11.70
2022-10-23T02:44:11.242Z,11.70
2022-10-23T02:46:37.876Z,11.70
2022-10-23T02:49:04.472Z,10.90
2022-10-23T02:51:31.079Z,10.90
2022-10-23T02:56:29.161Z,11.10
2022-10-23T02:58:55.741Z,11.20
2022-10-23T03:01:22.387Z,11.40
2022-10-23T03:03:49.096Z,11.20
2022-10-23T03:06:15.687Z,11.00
2022-10-23T03:08:42.315Z,11.20
2022-10-23T03:11:08.907Z,10.90
2022-10-23T03:13:35.543Z,11.10
2022-10-23T03:16:02.133Z,11.10
2022-10-23T03:18:28.748Z,11.10
2022-10-23T03:20:55.351Z,10.80
2022-10-23T03:23:21.935Z,10.60
2022-10-23T03:25:48.563Z,10.90
2022-10-23T03:28:15.165Z,10.80
2022-10-23T03:30:41.776Z,10.60
2022-10-23T03:33:08.378Z,10.90
2022-10-23T03:35:35.112Z,11.00
2022-10-23T03:38:01.749Z,10.90
2022-10-23T03:40:28.368Z,10.90
2022-10-23T03:42:54.957Z,10.50
2022-10-23T03:45:21.544Z,10.70
2022-10-23T03:47:48.151Z,10.70
2022-10-23T03:50:14.777Z,10.80
2022-10-23T03:52:41.562Z,10.90
2022-10-23T03:55:08.333Z,10.90
2022-10-23T03:57:34.943Z,10.90
2022-10-23T04:00:01.540Z,11.00
2022-10-23T04:02:28.251Z,10.60
2022-10-23T04:04:54.921Z,10.60
2022-10-23T04:07:21.527Z,10.60
2022-10-23T04:09:48.214Z,10.80
2022-10-23T04:12:14.847Z,10.70
2022-10-23T04:14:41.433Z,10.80
2022-10-23T04:17:08.141Z,10.50
2022-10-23T04:19:34.773Z,10.50
2022-10-23T04:22:01.392Z,10.70
2022-10-23T04:24:27.978Z,10.50
2022-10-23T04:26:54.599Z,10.70
2022-10-23T04:29:21.180Z,10.70
2022-10-23T04:31:47.773Z,10.90
2022-10-23T04:34:14.412Z,11.00
2022-10-23T04:36:41.073Z,10.90
2022-10-23T04:39:07.691Z,11.00
2022-10-23T04:41:34.314Z,11.00
2022-10-23T04:44:00.911Z,10.90
2022-10-23T04:46:27.549Z,10.60
2022-10-23T04:48:54.143Z,10.70
2022-10-23T04:51:20.775Z,10.20
2022-10-23T04:53:47.359Z,10.40
2022-10-23T04:56:13.999Z,10.40
2022-10-23T04:58:40.583Z,10.60
2022-10-23T05:01:07.280Z,10.30
2022-10-23T05:03:33.979Z,10.40
2022-10-23T05:06:00.584Z,10.60
2022-10-23T05:08:27.195Z,10.50
2022-10-23T05:10:53.828Z,9.80
2022-10-23T05:13:20.425Z,9.70
2022-10-23T05:15:47.047Z,10.00
2022-10-23T05:18:13.659Z,10.30
2022-10-23T05:20:40.279Z,10.30
2022-10-23T05:23:06.864Z,10.20
2022-10-23T05:25:33.506Z,10.20
2022-10-23T05:28:00.108Z,10.20
2022-10-23T05:30:26.748Z,10.00
2022-10-23T05:32:53.335Z,10.00
2022-10-23T05:35:19.918Z,10.00
2022-10-23T05:37:46.529Z,10.10
2022-10-23T05:40:13.132Z,10.30
2022-10-23T05:42:41.723Z,10.00
2022-10-23T05:45:08.531Z,10.10
2022-10-23T05:47:35.155Z,10.00
2022-10-23T05:50:01.762Z,10.10
2022-10-23T05:52:28.372Z,10.20
2022-10-23T05:54:54.993Z,10.50
2022-10-23T05:57:21.602Z,10.60
2022-10-23T05:59:48.226Z,10.20
2022-10-23T06:02:14.876Z,10.20
2022-10-23T06:04:41.541Z,10.50
2022-10-23T06:07:08.163Z,10.80
2022-10-23T06:09:34.795Z,10.90
2022-10-23T06:12:01.386Z,11.10
2022-10-23T06:14:28.005Z,11.10
2022-10-23T06:16:54.612Z,11.20
2022-10-23T06:19:21.251Z,11.30
2022-10-23T06:21:47.864Z,11.10
2022-10-23T06:24:14.475Z,11.20
2022-10-23T06:26:41.098Z,11.20
2022-10-23T06:29:07.722Z,11.40
2022-10-23T06:31:34.386Z,11.60
2022-10-23T06:34:00.978Z,11.70
2022-10-23T06:36:27.591Z,11.80
2022-10-23T06:38:54.280Z,11.90
2022-10-23T06:41:20.944Z,11.70
2022-10-23T06:46:31.838Z,12.00
2022-10-23T06:48:58.418Z,12.20
2022-10-23T06:51:25.028Z,12.30
2022-10-23T06:53:51.638Z,12.30
2022-10-23T06:56:18.244Z,12.30
2022-10-23T06:58:44.840Z,12.50
2022-10-23T07:01:11.603Z,12.50
2022-10-23T07:03:38.362Z,12.20
2022-10-23T07:06:04.968Z,12.00
2022-10-23T07:08:31.580Z,12.40
2022-10-23T07:10:58.195Z,12.70
2022-10-23T07:13:24.774Z,12.90
2022-10-23T07:15:51.411Z,12.90
2022-10-23T07:18:17.996Z,13.00
2022-10-23T07:20:44.608Z,13.10
2022-10-23T07:23:11.200Z,13.30
2022-10-23T07:25:37.838Z,13.30
2022-10-23T07:28:04.456Z,13.40
2022-10-23T07:30:31.069Z,13.70
2022-10-23T07:32:57.680Z,13.60
2022-10-23T07:35:24.260Z,13.70
2022-10-23T07:37:50.884Z,13.70
2022-10-23T07:40:17.523Z,13.70
2022-10-23T07:42:44.146Z,13.70
2022-10-23T07:45:10.772Z,13.80
2022-10-23T07:47:37.381Z,14.10
2022-10-23T07:50:03.997Z,14.10
2022-10-23T07:52:33.481Z,14.40
2022-10-23T07:55:02.457Z,14.70
2022-10-23T07:57:29.076Z,14.40
2022-10-23T07:59:55.682Z,14.30
2022-10-23T08:02:22.420Z,14.50
2022-10-23T08:04:49.064Z,14.40
2022-10-23T08:07:15.707Z,14.30
2022-10-23T08:09:42.300Z,14.40
2022-10-23T08:12:08.912Z,14.60
2022-10-23T08:14:35.523Z,14.40
2022-10-23T08:19:33.649Z,14.20
2022-10-23T08:22:00.242Z,14.20
2022-10-23T08:24:26.896Z,14.40
2022-10-23T08:26:53.489Z,14.50
2022-10-23T08:29:20.171Z,14.40
2022-10-23T08:31:46.770Z,14.50
2022-10-23T08:34:13.384Z,14.50
2022-10-23T08:36:39.994Z,14.50
2022-10-23T08:39:06.588Z,14.70
2022-10-23T08:41:33.198Z,14.60
2022-10-23T08:43:59.816Z,14.60
2022-10-23T08:46:26.450Z,14.60
2022-10-23T08:48:53.065Z,14.10
2022-10-23T08:51:19.682Z,14.10
2022-10-23T08:53:46.275Z,13.80
2022-10-23T08:56:12.916Z,14.00
2022-10-23T08:58:39.525Z,13.60
2022-10-23T09:01:06.221Z,13.90
2022-10-23T09:03:32.882Z,14.10
2022-10-23T09:05:59.487Z,14.40
2022-10-23T09:08:26.102Z,14.00
2022-10-23T09:10:52.722Z,14.20
2022-10-23T09:13:19.316Z,14.20
2022-10-23T09:15:45.930Z,14.10
2022-10-23T09:18:12.549Z,14.50
2022-10-23T09:20:39.143Z,14.50
2022-10-23T09:23:05.764Z,14.40
2022-10-23T09:25:32.355Z,14.90
2022-10-23T09:28:01.385Z,15.30
2022-10-23T09:30:31.048Z,15.30
2022-10-23T09:32:57.667Z,15.50
2022-10-23T09:35:24.285Z,15.50
2022-10-23T09:37:50.880Z,15.60
2022-10-23T09:40:17.503Z,15.60
2022-10-23T09:42:44.120Z,15.70
2022-10-23T09:45:10.757Z,15.70
2022-10-23T09:47:37.385Z,15.50
2022-10-23T09:50:03.986Z,15.30
2022-10-23T09:52:30.600Z,15.40
2022-10-23T09:54:57.195Z,15.60
2022-10-23T09:57:23.816Z,15.80
2022-10-23T09:59:50.411Z,15.80
2022-10-23T10:02:17.198Z,15.80
2022-10-23T10:04:43.904Z,15.90
2022-10-23T10:07:10.500Z,15.70
2022-10-23T10:09:37.262Z,15.70
2022-10-23T10:12:03.883Z,15.50
2022-10-23T10:14:30.500Z,15.60
2022-10-23T10:16:57.121Z,15.90
2022-10-23T10:19:23.764Z,15.90
2022-10-23T10:21:51.279Z,15.90
2022-10-23T10:24:17.906Z,16.00
2022-10-23T10:26:44.532Z,15.80
2022-10-23T10:29:11.156Z,16.30
2022-10-23T10:31:37.791Z,16.10
2022-10-23T10:34:04.396Z,16.10
2022-10-23T10:36:31.013Z,16.40
2022-10-23T10:38:57.632Z,16.80
2022-10-23T10:41:24.213Z,16.50
2022-10-23T10:43:50.848Z,16.50
2022-10-23T10:46:17.472Z,16.80
2022-10-23T10:48:44.138Z,16.90
2022-10-23T10:51:10.736Z,17.10
2022-10-23T10:53:37.362Z,17.40
2022-10-23T10:56:04.064Z,17.40
2022-10-23T10:58:30.738Z,17.50
2022-10-23T11:00:57.373Z,17.60
2022-10-23T11:03:24.099Z,17.90
2022-10-23T11:05:50.758Z,17.90
2022-10-23T11:08:17.438Z,18.10
2022-10-23T11:10:44.031Z,18.60
2022-10-23T11:13:10.701Z,18.10
2022-10-23T11:15:37.293Z,18.40
2022-10-23T11:18:03.904Z,18.10
2022-10-23T11:20:30.534Z,18.20
2022-10-23T11:22:57.153Z,18.40
2022-10-23T11:25:23.788Z,17.60
2022-10-23T11:27:50.402Z,18.10
2022-10-23T11:30:17.020Z,18.70
2022-10-23T11:32:43.659Z,18.50
2022-10-23T11:35:10.297Z,18.30
2022-10-23T11:37:36.916Z,18.60
2022-10-23T11:40:03.516Z,19.20
2022-10-23T11:42:30.143Z,19.40
2022-10-23T11:44:56.802Z,19.40
2022-10-23T11:47:23.394Z,19.30
2022-10-23T11:49:50.014Z,19.10
2022-10-23T11:52:16.634Z,18.70
2022-10-23T11:54:43.234Z,19.00
2022-10-23T11:57:10.698Z,19.50
2022-10-23T11:59:37.491Z,18.80
2022-10-23T12:02:04.291Z,19.00
2022-10-23T12:04:30.939Z,18.80
2022-10-23T12:06:57.587Z,19.00
2022-10-23T12:09:24.250Z,19.30
2022-10-23T12:11:50.847Z,19.60
2022-10-23T12:14:17.477Z,19.50
2022-10-23T12:16:44.092Z,19.10
2022-10-23T12:19:10.685Z,18.90
2022-10-23T12:21:37.298Z,18.70
2022-10-23T12:24:03.887Z,18.60
2022-10-23T12:26:30.514Z,19.20
2022-10-23T12:28:57.112Z,19.70
2022-10-23T12:31:23.731Z,20.00
2022-10-23T12:33:50.342Z,19.50
2022-10-23T12:36:16.981Z,19.50
2022-10-23T12:38:43.571Z,19.50
2022-10-23T12:41:10.227Z,19.50
2022-10-23T12:43:36.845Z,19.70
2022-10-23T12:48:47.679Z,19.90
2022-10-23T12:51:14.373Z,19.90
2022-10-23T12:53:40.985Z,20.30
2022-10-23T12:56:07.600Z,20.10
2022-10-23T12:58:34.236Z,20.30
2022-10-23T13:01:00.908Z,20.20
2022-10-23T13:03:27.705Z,20.20
2022-10-23T13:05:54.328Z,20.40
2022-10-23T13:08:20.931Z,20.30
2022-10-23T13:10:47.529Z,19.60
2022-10-23T13:13:14.162Z,19.60
2022-10-23T13:15:40.782Z,19.70
2022-10-23T13:18:07.408Z,19.90
2022-10-23T13:20:33.996Z,20.10
2022-10-23T13:23:01.105Z,20.40
2022-10-23T13:25:27.911Z,20.50
2022-10-23T13:27:54.508Z,20.50
2022-10-23T13:30:21.127Z,20.70
2022-10-23T13:32:47.791Z,20.60
2022-10-23T13:35:21.312Z,20.50
2022-10-23T13:37:48.722Z,20.40
2022-10-23T13:40:15.340Z,20.20
2022-10-23T13:42:42.197Z,20.50
2022-10-23T13:45:09.130Z,20.40
2022-10-23T13:47:35.775Z,20.20
2022-10-23T13:50:02.372Z,20.30
2022-10-23T13:52:29.012Z,20.60
2022-10-23T13:54:55.600Z,21.00
2022-10-23T13:57:22.221Z,21.50
2022-10-23T13:59:48.847Z,21.40
2022-10-23T14:02:15.564Z,21.70
2022-10-23T14:04:42.284Z,21.00
2022-10-23T14:07:08.902Z,21.30
2022-10-23T14:09:35.492Z,21.00
2022-10-23T14:12:02.088Z,21.20
2022-10-23T14:14:28.727Z,21.20
2022-10-23T14:16:55.347Z,21.50
2022-10-23T14:19:21.940Z,21.70
2022-10-23T14:21:48.596Z,21.30
2022-10-23T14:24:15.216Z,21.10
2022-10-23T14:26:41.839Z,21.10
2022-10-23T14:29:12.685Z,20.90
2022-10-23T14:31:45.237Z,20.90
2022-10-23T14:34:11.846Z,20.80
2022-10-23T14:36:49.623Z,21.10
2022-10-23T14:39:17.248Z,21.10
2022-10-23T14:41:43.849Z,21.20
2022-10-23T14:44:10.436Z,20.70
2022-10-23T14:46:37.089Z,20.80
2022-10-23T14:49:03.686Z,20.90
2022-10-23T14:51:30.285Z,21.00
2022-10-23T14:53:58.864Z,20.70
2022-10-23T14:56:25.712Z,20.80
2022-10-23T14:58:52.351Z,20.80
2022-10-23T15:01:19.080Z,20.80
2022-10-23T15:03:45.827Z,20.70
2022-10-23T15:06:16.065Z,20.70
2022-10-23T15:08:45.122Z,20.80
2022-10-23T15:11:12.740Z,20.50
2022-10-23T15:13:39.569Z,20.40
2022-10-23T15:16:06.177Z,20.20
2022-10-23T15:18:32.848Z,19.70
2022-10-23T15:20:59.547Z,19.90
2022-10-23T15:23:26.169Z,19.70
2022-10-23T15:25:52.800Z,19.50
2022-10-23T15:28:19.447Z,19.50
2022-10-23T15:30:46.052Z,19.60
2022-10-23T15:33:16.456Z,19.10
2022-10-23T15:35:45.621Z,19.30
2022-10-23T15:38:12.242Z,19.40
2022-10-23T15:40:38.835Z,19.30
2022-10-23T15:43:05.455Z,18.80
2022-10-23T15:45:32.039Z,18.60
2022-10-23T15:47:58.656Z,18.90
2022-10-23T15:50:25.311Z,18.90
2022-10-23T15:52:51.913Z,18.30
2022-10-23T15:55:18.547Z,18.30
2022-10-23T15:57:45.144Z,18.10
2022-10-23T16:00:11.778Z,18.30
2022-10-23T16:02:38.410Z,18.40
2022-10-23T16:05:05.062Z,18.20
2022-10-23T16:07:31.707Z,18.20
2022-10-23T16:09:58.297Z,17.70
2022-10-23T16:12:24.941Z,17.80
2022-10-23T16:14:51.522Z,17.90
2022-10-23T16:17:18.147Z,18.00
2022-10-23T16:19:44.739Z,18.00
2022-10-23T16:22:11.336Z,18.00
2022-10-23T16:24:37.953Z,18.00
2022-10-23T16:27:04.569Z,17.70
2022-10-23T16:29:31.170Z,17.70
2022-10-23T16:31:57.839Z,17.20
2022-10-23T16:34:24.530Z,17.00
2022-10-23T16:36:51.165Z,17.30
2022-10-23T16:39:17.790Z,17.50
2022-10-23T16:41:44.415Z,17.50
2022-10-23T16:44:11.050Z,17.50
2022-10-23T16:46:37.682Z,17.40
2022-10-23T16:49:04.318Z,17.40
2022-10-23T16:51:30.963Z,17.40
2022-10-23T16:53:57.591Z,17.20
2022-10-23T16:56:24.261Z,17.00
2022-10-23T16:58:50.876Z,17.10
2022-10-23T17:01:17.583Z,17.10
2022-10-23T17:03:44.260Z,17.10
2022-10-23T17:06:11.352Z,16.80
2022-10-23T17:08:38.103Z,16.70
2022-10-23T17:11:04.732Z,16.70
2022-10-23T17:13:31.343Z,16.30
2022-10-23T17:15:57.952Z,16.20
2022-10-23T17:18:24.570Z,16.40
2022-10-23T17:20:51.183Z,16.40
2022-10-23T17:23:17.857Z,16.50
2022-10-23T17:25:44.479Z,16.00
2022-10-23T17:28:11.207Z,15.40
2022-10-23T17:30:37.854Z,15.50
2022-10-23T17:33:04.489Z,15.60
2022-10-23T17:35:31.100Z,15.90
2022-10-23T17:37:57.724Z,16.10
2022-10-23T17:40:25.269Z,16.20
2022-10-23T17:42:51.981Z,16.20
2022-10-23T17:45:18.618Z,16.00
2022-10-23T17:47:45.243Z,16.00
2022-10-23T17:50:11.874Z,15.70
2022-10-23T17:52:38.478Z,15.50
2022-10-23T17:55:05.105Z,15.60
2022-10-23T17:57:31.715Z,15.80
2022-10-23T17:59:58.349Z,15.70
2022-10-23T18:02:25.048Z,15.80
2022-10-23T18:04:51.793Z,15.90
2022-10-23T18:07:18.413Z,15.30
2022-10-23T18:09:45.011Z,15.20
2022-10-23T18:12:11.650Z,15.30
2022-10-23T18:14:38.247Z,15.40
2022-10-23T18:17:04.852Z,15.20
2022-10-23T18:19:31.493Z,15.10
2022-10-23T18:21:58.093Z,15.40
2022-10-23T18:24:24.711Z,15.50
2022-10-23T18:26:51.321Z,15.60
2022-10-23T18:29:17.942Z,15.50
2022-10-23T18:31:44.542Z,15.50
2022-10-23T18:34:11.150Z,15.50
2022-10-23T18:36:37.773Z,15.50
2022-10-23T18:39:04.414Z,14.90
2022-10-23T18:41:31.030Z,15.10
2022-10-23T18:43:57.673Z,15.00
2022-10-23T18:46:24.279Z,14.80
2022-10-23T18:48:50.980Z,14.90
2022-10-23T18:51:17.601Z,14.70
2022-10-23T18:53:44.216Z,14.80
2022-10-23T18:56:10.856Z,14.80
2022-10-23T18:58:37.473Z,14.80
2022-10-23T19:01:04.201Z,14.90
2022-10-23T19:03:30.947Z,15.10
2022-10-23T19:05:57.561Z,14.50
2022-10-23T19:08:24.183Z,14.50
2022-10-23T19:10:50.796Z,14.40
2022-10-23T19:13:17.430Z,14.10
2022-10-23T19:15:44.028Z,14.30
2022-10-23T19:18:10.651Z,14.50
2022-10-23T19:20:37.245Z,14.70
2022-10-23T19:23:03.876Z,14.70
2022-10-23T19:25:30.541Z,14.80
2022-10-23T19:27:57.217Z,14.90
2022-10-23T19:30:23.844Z,14.90
2022-10-23T19:32:50.700Z,14.80
2022-10-23T19:35:17.331Z,14.70
2022-10-23T19:37:44.221Z,14.70
2022-10-23T19:40:10.974Z,14.30
2022-10-23T19:42:37.606Z,14.50
2022-10-23T19:45:04.209Z,14.60
2022-10-23T19:47:30.809Z,14.30
2022-10-23T19:49:57.437Z,14.30
2022-10-23T19:52:24.082Z,14.00
2022-10-23T19:54:50.706Z,14.00
2022-10-23T19:57:19.297Z,14.00
2022-10-23T19:59:48.499Z,14.20
2022-10-23T20:02:15.170Z,14.50
2022-10-23T20:04:41.915Z,14.50
2022-10-23T20:07:08.526Z,14.40
2022-10-23T20:09:35.153Z,14.30
2022-10-23T20:12:01.773Z,14.20
2022-10-23T20:14:28.394Z,13.60
2022-10-23T20:16:56.057Z,13.40
2022-10-23T20:19:22.881Z,13.90
2022-10-23T20:21:49.480Z,14.00
2022-10-23T20:24:16.080Z,14.20
2022-10-23T20:26:42.724Z,14.30
2022-10-23T20:29:09.363Z,14.40
2022-10-23T20:31:35.990Z,14.50
2022-10-23T20:34:02.589Z,14.10
2022-10-23T20:36:29.225Z,14.00
2022-10-23T20:38:55.813Z,14.00
2022-10-23T20:41:22.423Z,14.10
2022-10-23T20:43:49.010Z,13.80
2022-10-23T20:46:15.628Z,13.90
2022-10-23T20:48:42.225Z,13.90
2022-10-23T20:51:08.835Z,13.80
2022-10-23T20:53:35.464Z,14.10
2022-10-23T20:56:02.061Z,14.20
2022-10-23T20:58:28.658Z,14.00
2022-10-23T21:03:39.723Z,13.70
2022-10-23T21:06:06.349Z,14.10
2022-10-23T21:08:32.960Z,13.90
2022-10-23T21:10:59.581Z,13.60
2022-10-23T21:13:26.231Z,13.70
2022-10-23T21:15:52.876Z,13.80
2022-10-23T21:18:41.110Z,14.00
2022-10-23T21:21:06.086Z,13.60
2022-10-23T21:23:32.694Z,13.90
2022-10-23T21:26:02.225Z,13.90
2022-10-23T21:28:31.377Z,14.00
2022-10-23T21:30:57.981Z,14.20
2022-10-23T21:33:24.569Z,14.20
2022-10-23T21:35:58.463Z,14.40
2022-10-23T21:38:31.307Z,14.60
2022-10-23T21:40:57.954Z,14.60
2022-10-23T21:43:24.572Z,13.80
2022-10-23T21:45:54.300Z,13.60
2022-10-23T21:48:22.063Z,13.80
2022-10-23T21:53:16.185Z,13.70
2022-10-23T21:55:42.793Z,13.90
2022-10-23T21:58:09.412Z,14.20
2022-10-23T22:00:36.001Z,14.50
2022-10-23T22:03:02.637Z,14.40
2022-10-23T22:05:29.275Z,14.50
2022-10-23T22:07:55.882Z,14.50
2022-10-23T22:10:22.518Z,14.30
2022-10-23T22:12:49.140Z,14.20
2022-10-23T22:15:15.755Z,14.10
2022-10-23T22:17:42.703Z,13.90
2022-10-23T22:20:09.542Z,13.80
2022-10-23T22:22:36.172Z,13.80
2022-10-23T22:25:02.819Z,14.10
2022-10-23T22:27:29.411Z,13.70
2022-10-23T22:29:56.039Z,13.90
2022-10-23T22:32:22.661Z,14.10
2022-10-23T22:34:52.981Z,13.80
2022-10-23T22:37:20.010Z,13.50
2022-10-23T22:39:46.626Z,13.70
2022-10-23T22:42:13.228Z,13.70
2022-10-23T22:44:39.879Z,13.70
2022-10-23T22:47:06.477Z,14.00
2022-10-23T22:49:33.091Z,14.00
2022-10-23T22:51:59.732Z,13.90
2022-10-23T22:54:26.352Z,14.00
2022-10-23T22:56:52.963Z,13.90
2022-10-23T22:59:19.543Z,14.00
2022-10-23T23:01:46.179Z,14.00
2022-10-23T23:04:25.912Z,14.10
2022-10-23T23:06:52.739Z,14.00
2022-10-23T23:09:19.368Z,13.70
2022-10-23T23:11:51.915Z,13.60
2022-10-23T23:14:22.128Z,13.70
2022-10-23T23:16:50.698Z,13.40
2022-10-23T23:19:17.317Z,13.00
2022-10-23T23:21:43.942Z,13.30
2022-10-23T23:24:10.529Z,13.40
2022-10-23T23:26:37.144Z,13.80
2022-10-23T23:29:03.766Z,14.00
2022-10-23T23:31:30.385Z,13.70
2022-10-23T23:33:57.002Z,13.60
2022-10-23T23:36:23.615Z,13.40
2022-10-23T23:38:50.334Z,13.60
2022-10-23T23:41:17.016Z,13.30
2022-10-23T23:43:43.633Z,13.00
2022-10-23T23:46:10.241Z,13.10
2022-10-23T23:48:36.870Z,13.60
2022-10-23T23:51:03.455Z,14.10
2022-10-23T23:53:30.069Z,14.40
2022-10-23T23:55:56.700Z,14.60
2022-10-23T23:58:23.287Z,14.20
